< Cyclone 200101 2001 Season Cyclone 200103 >
Cyclone 200102 (TERRI)
General InformationTrack Information on Google MapsDetailed Wind InformationList of All Images || ResourceGoogle EarthGE AnimationAtom FeedGeoJSON
Detalied Best Track (Time Zone = UTC)
Year Month Day Hour Lat. Long. Pressure (hPa) Wind (kt) Class Image Chart
2001 1 28 04 -14.1 124.8 1002 23 2 Image --
2001 1 28 10 -14.5 124.2 1001 25 2 Image --
2001 1 28 16 -15.0 123.5 1000 27 2 Image --
2001 1 28 22 -15.4 122.8 998 29 2 Image --
2001 1 29 04 -15.6 122.1 996 33 2 Image --
2001 1 29 10 -15.8 121.6 994 35 3 Image --
2001 1 29 16 -15.9 121.2 992 39 3 Image --
2001 1 29 22 -16.2 120.8 988 45 3 Image --
2001 1 30 01 -16.5 120.4 985 49 4 Image --
2001 1 30 04 -16.9 120.0 980 54 4 Image --
2001 1 30 07 -17.3 119.6 975 60 4 Image --
2001 1 30 10 -17.8 119.3 975 60 4 Image --
2001 1 30 13 -18.2 119.2 975 60 4 Image --
2001 1 30 16 -18.6 119.1 975 60 4 Image --
2001 1 30 19 -18.9 119.1 975 60 4 Image --
2001 1 30 22 -19.2 119.3 980 54 4 Image --
2001 1 31 01 -19.8 119.6 980 54 4 Image --
2001 1 31 04 -20.4 119.9 980 54 4 Image --
2001 1 31 07 -21.3 120.2 985 49 4 Image --
2001 1 31 10 -22.2 120.5 985 49 4 Image --
2001 1 31 13 -23.0 120.8 990 41 3 Image --
2001 1 31 16 -23.8 121.1 990 41 3 Image --
2001 1 31 19 -24.7 121.4 990 41 3 Image --
2001 1 31 22 -25.7 122.0 990 41 3 Image --
< Cyclone 200101 2001 Season Cyclone 200103 >

Help